sensor_id;sensor_type;location;lat;lon;timestamp;P1;durP1;ratioP1;P2;durP2;ratioP2
41627;SDS011;27321;50.816;6.054;2023-02-12T00:00:15;43.05;;;23.55;;
41627;SDS011;27321;50.816;6.054;2023-02-12T00:03:17;50.80;;;23.63;;
41627;SDS011;27321;50.816;6.054;2023-02-12T00:06:18;42.20;;;22.93;;
41627;SDS011;27321;50.816;6.054;2023-02-12T00:09:19;40.67;;;23.20;;
41627;SDS011;27321;50.816;6.054;2023-02-12T00:12:20;39.63;;;21.75;;
41627;SDS011;27321;50.816;6.054;2023-02-12T00:15:21;40.30;;;22.38;;
41627;SDS011;27321;50.816;6.054;2023-02-12T00:18:22;37.00;;;21.23;;
41627;SDS011;27321;50.816;6.054;2023-02-12T00:21:23;43.77;;;21.70;;
41627;SDS011;27321;50.816;6.054;2023-02-12T00:24:24;35.22;;;20.23;;
41627;SDS011;27321;50.816;6.054;2023-02-12T00:27:26;37.63;;;20.67;;
41627;SDS011;27321;50.816;6.054;2023-02-12T00:30:27;37.13;;;21.33;;
41627;SDS011;27321;50.816;6.054;2023-02-12T00:33:28;38.15;;;20.90;;
41627;SDS011;27321;50.816;6.054;2023-02-12T00:36:30;38.47;;;21.77;;
41627;SDS011;27321;50.816;6.054;2023-02-12T00:39:32;37.53;;;21.23;;
41627;SDS011;27321;50.816;6.054;2023-02-12T00:42:37;40.70;;;21.80;;
41627;SDS011;27321;50.816;6.054;2023-02-12T00:45:38;40.87;;;23.93;;
41627;SDS011;27321;50.816;6.054;2023-02-12T00:48:39;44.60;;;23.23;;
41627;SDS011;27321;50.816;6.054;2023-02-12T00:51:40;41.83;;;23.02;;
41627;SDS011;27321;50.816;6.054;2023-02-12T00:54:44;39.47;;;22.37;;
41627;SDS011;27321;50.816;6.054;2023-02-12T00:57:45;43.77;;;23.27;;
41627;SDS011;27321;50.816;6.054;2023-02-12T01:00:46;43.03;;;23.63;;
41627;SDS011;27321;50.816;6.054;2023-02-12T01:03:47;42.67;;;22.47;;
41627;SDS011;27321;50.816;6.054;2023-02-12T01:06:48;44.90;;;23.83;;
41627;SDS011;27321;50.816;6.054;2023-02-12T01:09:49;42.90;;;23.10;;
41627;SDS011;27321;50.816;6.054;2023-02-12T01:12:50;41.03;;;22.40;;
41627;SDS011;27321;50.816;6.054;2023-02-12T01:16:00;42.50;;;22.95;;
41627;SDS011;27321;50.816;6.054;2023-02-12T01:19:05;40.27;;;22.17;;
41627;SDS011;27321;50.816;6.054;2023-02-12T01:22:06;38.87;;;21.97;;
41627;SDS011;27321;50.816;6.054;2023-02-12T01:25:07;41.77;;;22.40;;
41627;SDS011;27321;50.816;6.054;2023-02-12T01:28:09;33.65;;;19.98;;
41627;SDS011;27321;50.816;6.054;2023-02-12T01:31:11;34.42;;;19.92;;
41627;SDS011;27321;50.816;6.054;2023-02-12T01:34:18;38.80;;;21.27;;
41627;SDS011;27321;50.816;6.054;2023-02-12T01:37:19;42.22;;;22.77;;
41627;SDS011;27321;50.816;6.054;2023-02-12T01:40:20;42.40;;;23.47;;
41627;SDS011;27321;50.816;6.054;2023-02-12T01:43:21;38.90;;;23.20;;
41627;SDS011;27321;50.816;6.054;2023-02-12T01:46:22;38.87;;;21.13;;
41627;SDS011;27321;50.816;6.054;2023-02-12T01:49:28;41.00;;;22.33;;
41627;SDS011;27321;50.816;6.054;2023-02-12T01:52:43;41.80;;;22.40;;
41627;SDS011;27321;50.816;6.054;2023-02-12T01:55:49;38.40;;;21.23;;
41627;SDS011;27321;50.816;6.054;2023-02-12T01:58:53;38.57;;;21.93;;
41627;SDS011;27321;50.816;6.054;2023-02-12T02:01:57;39.23;;;21.43;;
41627;SDS011;27321;50.816;6.054;2023-02-12T02:04:58;35.97;;;20.10;;
41627;SDS011;27321;50.816;6.054;2023-02-12T02:08:03;33.87;;;19.63;;
41627;SDS011;27321;50.816;6.054;2023-02-12T02:11:05;37.13;;;19.95;;
41627;SDS011;27321;50.816;6.054;2023-02-12T02:14:26;41.42;;;21.55;;
41627;SDS011;27321;50.816;6.054;2023-02-12T02:21:12;43.10;;;22.93;;
41627;SDS011;27321;50.816;6.054;2023-02-12T02:28:58;36.08;;;20.55;;
41627;SDS011;27321;50.816;6.054;2023-02-12T02:32:28;34.00;;;19.60;;
41627;SDS011;27321;50.816;6.054;2023-02-12T02:35:55;31.35;;;19.05;;
41627;SDS011;27321;50.816;6.054;2023-02-12T02:39:34;32.83;;;18.70;;
41627;SDS011;27321;50.816;6.054;2023-02-12T02:42:59;36.10;;;19.73;;
41627;SDS011;27321;50.816;6.054;2023-02-12T02:46:14;35.35;;;19.73;;
41627;SDS011;27321;50.816;6.054;2023-02-12T02:49:31;35.13;;;20.77;;
41627;SDS011;27321;50.816;6.054;2023-02-12T02:52:40;33.20;;;18.80;;
41627;SDS011;27321;50.816;6.054;2023-02-12T02:55:50;33.53;;;19.67;;
41627;SDS011;27321;50.816;6.054;2023-02-12T02:59:02;33.50;;;19.57;;
41627;SDS011;27321;50.816;6.054;2023-02-12T03:05:28;32.40;;;19.20;;
41627;SDS011;27321;50.816;6.054;2023-02-12T03:08:36;34.03;;;19.57;;
41627;SDS011;27321;50.816;6.054;2023-02-12T03:11:51;36.47;;;19.97;;
41627;SDS011;27321;50.816;6.054;2023-02-12T03:15:02;38.10;;;20.70;;
41627;SDS011;27321;50.816;6.054;2023-02-12T03:18:10;35.73;;;19.60;;
41627;SDS011;27321;50.816;6.054;2023-02-12T03:21:25;34.10;;;19.30;;
41627;SDS011;27321;50.816;6.054;2023-02-12T03:25:00;34.33;;;19.13;;
41627;SDS011;27321;50.816;6.054;2023-02-12T03:28:18;33.47;;;18.87;;
41627;SDS011;27321;50.816;6.054;2023-02-12T03:31:37;33.33;;;19.30;;
41627;SDS011;27321;50.816;6.054;2023-02-12T03:35:08;34.00;;;18.23;;
41627;SDS011;27321;50.816;6.054;2023-02-12T03:38:21;33.13;;;18.67;;
41627;SDS011;27321;50.816;6.054;2023-02-12T03:41:36;33.40;;;18.60;;
41627;SDS011;27321;50.816;6.054;2023-02-12T03:44:57;35.70;;;19.27;;
41627;SDS011;27321;50.816;6.054;2023-02-12T03:51:44;32.13;;;18.03;;
41627;SDS011;27321;50.816;6.054;2023-02-12T03:54:45;37.90;;;19.57;;
41627;SDS011;27321;50.816;6.054;2023-02-12T03:57:48;35.53;;;20.57;;
41627;SDS011;27321;50.816;6.054;2023-02-12T04:00:54;36.17;;;19.47;;
41627;SDS011;27321;50.816;6.054;2023-02-12T04:03:55;32.42;;;19.23;;
41627;SDS011;27321;50.816;6.054;2023-02-12T04:06:58;35.53;;;19.00;;
41627;SDS011;27321;50.816;6.054;2023-02-12T04:10:00;34.88;;;20.00;;
41627;SDS011;27321;50.816;6.054;2023-02-12T04:20:10;34.20;;;18.80;;
41627;SDS011;27321;50.816;6.054;2023-02-12T04:23:44;33.03;;;18.83;;
41627;SDS011;27321;50.816;6.054;2023-02-12T04:27:13;30.87;;;18.17;;
41627;SDS011;27321;50.816;6.054;2023-02-12T04:30:30;29.90;;;18.37;;
41627;SDS011;27321;50.816;6.054;2023-02-12T04:33:42;33.00;;;19.00;;
41627;SDS011;27321;50.816;6.054;2023-02-12T04:36:56;33.17;;;19.17;;
41627;SDS011;27321;50.816;6.054;2023-02-12T04:40:06;30.53;;;17.30;;
41627;SDS011;27321;50.816;6.054;2023-02-12T04:43:24;34.13;;;18.57;;
41627;SDS011;27321;50.816;6.054;2023-02-12T04:46:36;35.50;;;18.30;;
41627;SDS011;27321;50.816;6.054;2023-02-12T04:49:37;33.23;;;18.77;;
41627;SDS011;27321;50.816;6.054;2023-02-12T04:52:38;32.03;;;18.37;;
41627;SDS011;27321;50.816;6.054;2023-02-12T04:55:39;33.73;;;19.10;;
41627;SDS011;27321;50.816;6.054;2023-02-12T04:58:40;34.45;;;19.27;;
41627;SDS011;27321;50.816;6.054;2023-02-12T05:01:41;31.52;;;17.63;;
41627;SDS011;27321;50.816;6.054;2023-02-12T05:04:44;30.13;;;17.90;;
41627;SDS011;27321;50.816;6.054;2023-02-12T05:07:45;32.87;;;18.47;;
41627;SDS011;27321;50.816;6.054;2023-02-12T05:10:46;29.63;;;17.83;;
41627;SDS011;27321;50.816;6.054;2023-02-12T05:13:49;32.27;;;18.37;;
41627;SDS011;27321;50.816;6.054;2023-02-12T05:16:51;29.87;;;18.10;;
41627;SDS011;27321;50.816;6.054;2023-02-12T05:19:52;33.25;;;18.55;;
41627;SDS011;27321;50.816;6.054;2023-02-12T05:22:53;31.47;;;18.43;;
41627;SDS011;27321;50.816;6.054;2023-02-12T05:25:54;29.50;;;18.13;;
41627;SDS011;27321;50.816;6.054;2023-02-12T05:28:58;30.67;;;17.80;;
41627;SDS011;27321;50.816;6.054;2023-02-12T05:31:59;27.60;;;16.00;;
41627;SDS011;27321;50.816;6.054;2023-02-12T05:35:00;30.13;;;17.80;;
41627;SDS011;27321;50.816;6.054;2023-02-12T05:38:01;30.83;;;17.23;;
41627;SDS011;27321;50.816;6.054;2023-02-12T05:41:07;31.13;;;17.57;;
41627;SDS011;27321;50.816;6.054;2023-02-12T05:44:14;32.00;;;17.58;;
41627;SDS011;27321;50.816;6.054;2023-02-12T05:47:15;32.35;;;18.00;;
41627;SDS011;27321;50.816;6.054;2023-02-12T05:50:16;34.40;;;18.87;;
41627;SDS011;27321;50.816;6.054;2023-02-12T05:53:17;34.85;;;19.27;;
41627;SDS011;27321;50.816;6.054;2023-02-12T05:56:23;32.60;;;18.47;;
41627;SDS011;27321;50.816;6.054;2023-02-12T05:59:26;28.57;;;17.00;;
41627;SDS011;27321;50.816;6.054;2023-02-12T06:02:27;31.23;;;17.70;;
41627;SDS011;27321;50.816;6.054;2023-02-12T06:05:28;26.38;;;16.77;;
41627;SDS011;27321;50.816;6.054;2023-02-12T06:08:29;32.10;;;17.97;;
41627;SDS011;27321;50.816;6.054;2023-02-12T06:11:30;32.13;;;18.33;;
41627;SDS011;27321;50.816;6.054;2023-02-12T06:14:31;28.23;;;16.90;;
41627;SDS011;27321;50.816;6.054;2023-02-12T06:17:32;30.00;;;17.20;;
41627;SDS011;27321;50.816;6.054;2023-02-12T06:20:37;29.33;;;16.23;;
41627;SDS011;27321;50.816;6.054;2023-02-12T06:23:39;30.20;;;16.13;;
41627;SDS011;27321;50.816;6.054;2023-02-12T06:26:40;27.02;;;16.17;;
41627;SDS011;27321;50.816;6.054;2023-02-12T06:32:43;29.13;;;16.87;;
41627;SDS011;27321;50.816;6.054;2023-02-12T06:35:43;28.33;;;16.53;;
41627;SDS011;27321;50.816;6.054;2023-02-12T06:38:45;26.80;;;15.65;;
41627;SDS011;27321;50.816;6.054;2023-02-12T06:44:48;27.37;;;15.93;;
41627;SDS011;27321;50.816;6.054;2023-02-12T06:47:49;30.13;;;16.47;;
41627;SDS011;27321;50.816;6.054;2023-02-12T06:50:51;29.85;;;17.35;;
41627;SDS011;27321;50.816;6.054;2023-02-12T06:53:52;31.53;;;18.17;;
41627;SDS011;27321;50.816;6.054;2023-02-12T06:56:55;29.63;;;17.70;;
41627;SDS011;27321;50.816;6.054;2023-02-12T06:59:58;32.90;;;19.13;;
41627;SDS011;27321;50.816;6.054;2023-02-12T07:02:59;32.33;;;19.50;;
41627;SDS011;27321;50.816;6.054;2023-02-12T07:06:02;34.67;;;21.00;;
41627;SDS011;27321;50.816;6.054;2023-02-12T07:09:03;32.30;;;18.67;;
41627;SDS011;27321;50.816;6.054;2023-02-12T07:12:05;28.77;;;16.88;;
41627;SDS011;27321;50.816;6.054;2023-02-12T07:15:06;31.05;;;17.60;;
41627;SDS011;27321;50.816;6.054;2023-02-12T07:18:07;29.63;;;16.92;;
41627;SDS011;27321;50.816;6.054;2023-02-12T07:21:09;34.33;;;20.53;;
41627;SDS011;27321;50.816;6.054;2023-02-12T07:24:11;32.87;;;19.00;;
41627;SDS011;27321;50.816;6.054;2023-02-12T07:27:13;32.87;;;18.43;;
41627;SDS011;27321;50.816;6.054;2023-02-12T07:30:14;31.60;;;17.33;;
41627;SDS011;27321;50.816;6.054;2023-02-12T07:33:15;27.83;;;16.65;;
41627;SDS011;27321;50.816;6.054;2023-02-12T07:36:17;25.45;;;15.32;;
41627;SDS011;27321;50.816;6.054;2023-02-12T07:42:20;25.73;;;15.87;;
41627;SDS011;27321;50.816;6.054;2023-02-12T07:45:23;30.43;;;17.40;;
41627;SDS011;27321;50.816;6.054;2023-02-12T07:48:24;29.10;;;16.93;;
41627;SDS011;27321;50.816;6.054;2023-02-12T07:51:25;26.73;;;16.30;;
41627;SDS011;27321;50.816;6.054;2023-02-12T07:54:27;29.27;;;16.53;;
41627;SDS011;27321;50.816;6.054;2023-02-12T07:57:28;30.80;;;16.67;;
41627;SDS011;27321;50.816;6.054;2023-02-12T08:00:29;28.60;;;16.67;;
41627;SDS011;27321;50.816;6.054;2023-02-12T08:03:29;29.50;;;17.60;;
41627;SDS011;27321;50.816;6.054;2023-02-12T08:06:33;25.50;;;15.90;;
41627;SDS011;27321;50.816;6.054;2023-02-12T08:09:36;28.40;;;16.73;;
41627;SDS011;27321;50.816;6.054;2023-02-12T08:12:37;26.53;;;16.70;;
41627;SDS011;27321;50.816;6.054;2023-02-12T08:15:38;28.50;;;16.60;;
41627;SDS011;27321;50.816;6.054;2023-02-12T08:18:39;28.07;;;16.70;;
41627;SDS011;27321;50.816;6.054;2023-02-12T08:21:41;28.42;;;16.33;;
41627;SDS011;27321;50.816;6.054;2023-02-12T08:24:42;26.80;;;16.90;;
41627;SDS011;27321;50.816;6.054;2023-02-12T08:27:43;27.55;;;16.00;;
41627;SDS011;27321;50.816;6.054;2023-02-12T08:30:44;33.80;;;19.13;;
41627;SDS011;27321;50.816;6.054;2023-02-12T08:33:46;29.53;;;17.67;;
41627;SDS011;27321;50.816;6.054;2023-02-12T08:36:49;34.90;;;19.83;;
41627;SDS011;27321;50.816;6.054;2023-02-12T08:39:53;32.53;;;19.37;;
41627;SDS011;27321;50.816;6.054;2023-02-12T08:42:54;33.43;;;19.37;;
41627;SDS011;27321;50.816;6.054;2023-02-12T08:45:59;29.83;;;18.40;;
41627;SDS011;27321;50.816;6.054;2023-02-12T08:49:06;31.17;;;18.70;;
41627;SDS011;27321;50.816;6.054;2023-02-12T08:52:15;30.77;;;18.40;;
41627;SDS011;27321;50.816;6.054;2023-02-12T08:55:15;30.20;;;17.90;;
41627;SDS011;27321;50.816;6.054;2023-02-12T08:58:17;27.98;;;16.83;;
41627;SDS011;27321;50.816;6.054;2023-02-12T09:01:19;30.47;;;17.37;;
41627;SDS011;27321;50.816;6.054;2023-02-12T09:04:24;29.97;;;17.93;;
41627;SDS011;27321;50.816;6.054;2023-02-12T09:07:27;32.23;;;18.87;;
41627;SDS011;27321;50.816;6.054;2023-02-12T09:10:28;34.50;;;18.57;;
41627;SDS011;27321;50.816;6.054;2023-02-12T09:13:28;30.90;;;18.50;;
41627;SDS011;27321;50.816;6.054;2023-02-12T09:16:30;30.43;;;18.70;;
41627;SDS011;27321;50.816;6.054;2023-02-12T09:19:33;32.53;;;19.07;;
41627;SDS011;27321;50.816;6.054;2023-02-12T09:22:34;33.17;;;20.08;;
41627;SDS011;27321;50.816;6.054;2023-02-12T09:25:41;33.10;;;20.20;;
41627;SDS011;27321;50.816;6.054;2023-02-12T09:28:43;33.93;;;20.77;;
41627;SDS011;27321;50.816;6.054;2023-02-12T09:31:44;37.70;;;22.03;;
41627;SDS011;27321;50.816;6.054;2023-02-12T09:34:46;42.08;;;23.23;;
41627;SDS011;27321;50.816;6.054;2023-02-12T09:37:47;35.83;;;21.67;;
41627;SDS011;27321;50.816;6.054;2023-02-12T09:47:50;40.03;;;23.53;;
41627;SDS011;27321;50.816;6.054;2023-02-12T09:51:33;38.17;;;21.88;;
41627;SDS011;27321;50.816;6.054;2023-02-12T09:54:37;36.13;;;21.17;;
41627;SDS011;27321;50.816;6.054;2023-02-12T09:58:49;33.17;;;19.90;;
41627;SDS011;27321;50.816;6.054;2023-02-12T10:02:40;35.50;;;21.03;;
41627;SDS011;27321;50.816;6.054;2023-02-12T10:06:38;38.13;;;21.63;;
41627;SDS011;27321;50.816;6.054;2023-02-12T10:27:49;38.43;;;22.70;;
41627;SDS011;27321;50.816;6.054;2023-02-12T10:31:03;40.05;;;23.20;;
41627;SDS011;27321;50.816;6.054;2023-02-12T10:34:43;39.50;;;22.70;;
41627;SDS011;27321;50.816;6.054;2023-02-12T10:37:59;38.77;;;22.77;;
41627;SDS011;27321;50.816;6.054;2023-02-12T10:41:38;44.97;;;24.13;;
41627;SDS011;27321;50.816;6.054;2023-02-12T10:44:46;44.73;;;24.27;;
41627;SDS011;27321;50.816;6.054;2023-02-12T10:47:48;39.37;;;23.13;;
41627;SDS011;27321;50.816;6.054;2023-02-12T10:57:40;39.23;;;22.17;;
41627;SDS011;27321;50.816;6.054;2023-02-12T11:00:42;37.30;;;22.57;;
41627;SDS011;27321;50.816;6.054;2023-02-12T11:03:42;41.50;;;22.73;;
41627;SDS011;27321;50.816;6.054;2023-02-12T11:06:57;37.67;;;21.55;;
41627;SDS011;27321;50.816;6.054;2023-02-12T11:10:14;36.63;;;21.60;;
41627;SDS011;27321;50.816;6.054;2023-02-12T11:13:25;40.77;;;22.80;;
41627;SDS011;27321;50.816;6.054;2023-02-12T11:16:29;37.77;;;22.73;;
41627;SDS011;27321;50.816;6.054;2023-02-12T11:19:39;37.90;;;22.40;;
41627;SDS011;27321;50.816;6.054;2023-02-12T11:23:00;41.78;;;24.00;;
41627;SDS011;27321;50.816;6.054;2023-02-12T11:29:20;42.10;;;23.80;;
41627;SDS011;27321;50.816;6.054;2023-02-12T11:32:23;37.40;;;22.17;;
41627;SDS011;27321;50.816;6.054;2023-02-12T11:35:24;41.57;;;23.93;;
41627;SDS011;27321;50.816;6.054;2023-02-12T11:38:32;37.37;;;22.43;;
41627;SDS011;27321;50.816;6.054;2023-02-12T11:41:38;38.67;;;21.57;;
41627;SDS011;27321;50.816;6.054;2023-02-12T11:44:42;39.93;;;23.33;;
41627;SDS011;27321;50.816;6.054;2023-02-12T11:47:49;39.70;;;23.20;;
41627;SDS011;27321;50.816;6.054;2023-02-12T11:50:51;39.35;;;22.70;;
41627;SDS011;27321;50.816;6.054;2023-02-12T11:53:56;35.73;;;21.60;;
41627;SDS011;27321;50.816;6.054;2023-02-12T11:57:02;34.63;;;20.70;;
41627;SDS011;27321;50.816;6.054;2023-02-12T12:03:40;34.47;;;21.40;;
41627;SDS011;27321;50.816;6.054;2023-02-12T12:07:18;37.53;;;22.33;;
41627;SDS011;27321;50.816;6.054;2023-02-12T12:10:33;41.50;;;22.57;;
41627;SDS011;27321;50.816;6.054;2023-02-12T12:13:42;38.80;;;23.27;;
41627;SDS011;27321;50.816;6.054;2023-02-12T12:20:25;34.07;;;20.63;;
41627;SDS011;27321;50.816;6.054;2023-02-12T12:26:49;40.50;;;23.10;;
41627;SDS011;27321;50.816;6.054;2023-02-12T12:30:00;33.47;;;20.77;;
41627;SDS011;27321;50.816;6.054;2023-02-12T12:33:09;39.97;;;23.97;;
41627;SDS011;27321;50.816;6.054;2023-02-12T12:40:15;40.45;;;22.95;;
41627;SDS011;27321;50.816;6.054;2023-02-12T12:46:57;39.80;;;23.67;;
41627;SDS011;27321;50.816;6.054;2023-02-12T13:16:17;40.87;;;23.03;;
41627;SDS011;27321;50.816;6.054;2023-02-12T13:22:56;38.93;;;22.73;;
41627;SDS011;27321;50.816;6.054;2023-02-12T13:26:06;38.20;;;22.80;;
41627;SDS011;27321;50.816;6.054;2023-02-12T13:29:37;39.20;;;23.13;;
41627;SDS011;27321;50.816;6.054;2023-02-12T13:32:49;41.23;;;23.57;;
41627;SDS011;27321;50.816;6.054;2023-02-12T13:46:13;37.90;;;22.67;;
41627;SDS011;27321;50.816;6.054;2023-02-12T13:49:38;38.97;;;22.23;;
41627;SDS011;27321;50.816;6.054;2023-02-12T13:52:55;37.13;;;22.65;;
41627;SDS011;27321;50.816;6.054;2023-02-12T13:59:43;37.33;;;22.97;;
41627;SDS011;27321;50.816;6.054;2023-02-12T14:02:50;39.70;;;23.23;;
41627;SDS011;27321;50.816;6.054;2023-02-12T14:09:19;39.40;;;23.30;;
41627;SDS011;27321;50.816;6.054;2023-02-12T14:12:35;39.22;;;23.13;;
41627;SDS011;27321;50.816;6.054;2023-02-12T14:15:49;42.70;;;23.90;;
41627;SDS011;27321;50.816;6.054;2023-02-12T14:19:35;41.97;;;23.85;;
41627;SDS011;27321;50.816;6.054;2023-02-12T14:25:44;40.70;;;24.50;;
41627;SDS011;27321;50.816;6.054;2023-02-12T14:28:55;43.53;;;25.03;;
41627;SDS011;27321;50.816;6.054;2023-02-12T14:31:59;41.10;;;23.90;;
41627;SDS011;27321;50.816;6.054;2023-02-12T14:35:26;46.15;;;24.95;;
41627;SDS011;27321;50.816;6.054;2023-02-12T14:41:42;35.43;;;21.77;;
41627;SDS011;27321;50.816;6.054;2023-02-12T14:44:44;48.42;;;27.08;;
41627;SDS011;27321;50.816;6.054;2023-02-12T14:47:58;42.37;;;24.43;;
41627;SDS011;27321;50.816;6.054;2023-02-12T14:54:01;48.57;;;24.73;;
41627;SDS011;27321;50.816;6.054;2023-02-12T14:57:20;47.60;;;25.57;;
41627;SDS011;27321;50.816;6.054;2023-02-12T15:00:37;43.40;;;25.20;;
41627;SDS011;27321;50.816;6.054;2023-02-12T15:03:43;40.00;;;22.20;;
41627;SDS011;27321;50.816;6.054;2023-02-12T15:06:57;37.73;;;23.57;;
41627;SDS011;27321;50.816;6.054;2023-02-12T15:13:28;40.60;;;23.40;;
41627;SDS011;27321;50.816;6.054;2023-02-12T15:16:51;42.63;;;24.55;;
41627;SDS011;27321;50.816;6.054;2023-02-12T15:20:29;43.93;;;25.07;;
41627;SDS011;27321;50.816;6.054;2023-02-12T15:23:44;45.60;;;25.33;;
41627;SDS011;27321;50.816;6.054;2023-02-12T15:26:47;41.50;;;24.73;;
41627;SDS011;27321;50.816;6.054;2023-02-12T15:29:51;44.53;;;25.60;;
41627;SDS011;27321;50.816;6.054;2023-02-12T15:32:57;46.53;;;27.03;;
41627;SDS011;27321;50.816;6.054;2023-02-12T15:36:03;47.17;;;26.30;;
41627;SDS011;27321;50.816;6.054;2023-02-12T15:42:24;42.10;;;23.97;;
41627;SDS011;27321;50.816;6.054;2023-02-12T15:45:38;47.30;;;28.23;;
41627;SDS011;27321;50.816;6.054;2023-02-12T15:48:39;46.07;;;26.73;;
41627;SDS011;27321;50.816;6.054;2023-02-12T15:51:40;48.17;;;27.35;;
41627;SDS011;27321;50.816;6.054;2023-02-12T15:54:42;48.75;;;28.30;;
41627;SDS011;27321;50.816;6.054;2023-02-12T15:57:48;44.67;;;26.77;;
41627;SDS011;27321;50.816;6.054;2023-02-12T16:00:52;50.40;;;29.10;;
41627;SDS011;27321;50.816;6.054;2023-02-12T16:03:59;47.97;;;27.27;;
41627;SDS011;27321;50.816;6.054;2023-02-12T16:07:03;49.63;;;27.30;;
41627;SDS011;27321;50.816;6.054;2023-02-12T16:10:06;55.13;;;29.93;;
41627;SDS011;27321;50.816;6.054;2023-02-12T16:13:18;45.77;;;27.50;;
41627;SDS011;27321;50.816;6.054;2023-02-12T16:16:30;42.67;;;27.33;;
41627;SDS011;27321;50.816;6.054;2023-02-12T16:20:32;51.42;;;26.90;;
41627;SDS011;27321;50.816;6.054;2023-02-12T16:23:20;46.27;;;25.23;;
41627;SDS011;27321;50.816;6.054;2023-02-12T16:26:23;41.43;;;25.10;;
41627;SDS011;27321;50.816;6.054;2023-02-12T16:29:25;40.97;;;24.13;;
41627;SDS011;27321;50.816;6.054;2023-02-12T16:32:36;44.07;;;25.53;;
41627;SDS011;27321;50.816;6.054;2023-02-12T16:35:40;44.58;;;25.08;;
41627;SDS011;27321;50.816;6.054;2023-02-12T16:42:08;43.70;;;24.20;;
41627;SDS011;27321;50.816;6.054;2023-02-12T16:48:30;49.58;;;29.30;;
41627;SDS011;27321;50.816;6.054;2023-02-12T16:51:42;44.67;;;24.83;;
41627;SDS011;27321;50.816;6.054;2023-02-12T16:54:45;40.97;;;23.60;;
41627;SDS011;27321;50.816;6.054;2023-02-12T16:57:46;38.22;;;23.25;;
41627;SDS011;27321;50.816;6.054;2023-02-12T17:00:47;41.57;;;23.40;;
41627;SDS011;27321;50.816;6.054;2023-02-12T17:03:48;44.10;;;24.20;;
41627;SDS011;27321;50.816;6.054;2023-02-12T17:09:51;42.55;;;22.15;;
41627;SDS011;27321;50.816;6.054;2023-02-12T17:12:52;42.00;;;22.58;;
41627;SDS011;27321;50.816;6.054;2023-02-12T17:15:58;40.88;;;22.52;;
41627;SDS011;27321;50.816;6.054;2023-02-12T17:19:02;41.00;;;23.33;;
41627;SDS011;27321;50.816;6.054;2023-02-12T17:22:03;38.83;;;21.73;;
41627;SDS011;27321;50.816;6.054;2023-02-12T17:25:08;41.20;;;23.37;;
41627;SDS011;27321;50.816;6.054;2023-02-12T17:28:11;37.80;;;22.47;;
41627;SDS011;27321;50.816;6.054;2023-02-12T17:31:12;41.87;;;25.53;;
41627;SDS011;27321;50.816;6.054;2023-02-12T17:34:13;41.95;;;23.45;;
41627;SDS011;27321;50.816;6.054;2023-02-12T17:37:16;37.80;;;22.87;;
41627;SDS011;27321;50.816;6.054;2023-02-12T17:43:18;52.53;;;29.30;;
41627;SDS011;27321;50.816;6.054;2023-02-12T17:46:20;46.83;;;25.67;;
41627;SDS011;27321;50.816;6.054;2023-02-12T17:49:24;45.23;;;24.70;;
41627;SDS011;27321;50.816;6.054;2023-02-12T17:52:25;44.10;;;26.07;;
41627;SDS011;27321;50.816;6.054;2023-02-12T17:55:26;44.83;;;26.20;;
41627;SDS011;27321;50.816;6.054;2023-02-12T17:58:27;45.57;;;25.53;;
41627;SDS011;27321;50.816;6.054;2023-02-12T18:01:28;47.13;;;25.25;;
41627;SDS011;27321;50.816;6.054;2023-02-12T18:04:32;46.42;;;27.20;;
41627;SDS011;27321;50.816;6.054;2023-02-12T18:07:35;48.40;;;26.30;;
41627;SDS011;27321;50.816;6.054;2023-02-12T18:10:39;44.25;;;24.95;;
41627;SDS011;27321;50.816;6.054;2023-02-12T18:13:42;41.07;;;25.17;;
41627;SDS011;27321;50.816;6.054;2023-02-12T18:16:44;39.58;;;24.15;;
41627;SDS011;27321;50.816;6.054;2023-02-12T18:19:45;45.83;;;24.45;;
41627;SDS011;27321;50.816;6.054;2023-02-12T18:25:49;44.28;;;25.13;;
41627;SDS011;27321;50.816;6.054;2023-02-12T18:28:50;53.67;;;26.03;;
41627;SDS011;27321;50.816;6.054;2023-02-12T18:31:53;45.53;;;24.77;;
41627;SDS011;27321;50.816;6.054;2023-02-12T18:34:54;41.67;;;23.83;;
41627;SDS011;27321;50.816;6.054;2023-02-12T18:37:55;39.53;;;23.42;;
41627;SDS011;27321;50.816;6.054;2023-02-12T18:40:57;37.85;;;22.42;;
41627;SDS011;27321;50.816;6.054;2023-02-12T18:44:00;42.20;;;22.77;;
41627;SDS011;27321;50.816;6.054;2023-02-12T18:47:01;39.42;;;23.52;;
41627;SDS011;27321;50.816;6.054;2023-02-12T18:50:02;36.97;;;20.20;;
41627;SDS011;27321;50.816;6.054;2023-02-12T18:53:04;39.38;;;20.92;;
41627;SDS011;27321;50.816;6.054;2023-02-12T18:56:06;40.92;;;20.40;;
41627;SDS011;27321;50.816;6.054;2023-02-12T18:59:13;41.83;;;22.43;;
41627;SDS011;27321;50.816;6.054;2023-02-12T19:02:14;41.20;;;22.37;;
41627;SDS011;27321;50.816;6.054;2023-02-12T19:05:15;39.77;;;22.20;;
41627;SDS011;27321;50.816;6.054;2023-02-12T19:08:16;38.60;;;21.60;;
41627;SDS011;27321;50.816;6.054;2023-02-12T19:11:17;37.10;;;21.13;;
41627;SDS011;27321;50.816;6.054;2023-02-12T19:14:19;40.57;;;20.53;;
41627;SDS011;27321;50.816;6.054;2023-02-12T19:17:23;41.93;;;22.60;;
41627;SDS011;27321;50.816;6.054;2023-02-12T19:20:24;37.13;;;21.97;;
41627;SDS011;27321;50.816;6.054;2023-02-12T19:23:25;39.17;;;22.60;;
41627;SDS011;27321;50.816;6.054;2023-02-12T19:26:26;36.83;;;21.00;;
41627;SDS011;27321;50.816;6.054;2023-02-12T19:29:28;35.33;;;20.50;;
41627;SDS011;27321;50.816;6.054;2023-02-12T19:32:29;39.67;;;21.60;;
41627;SDS011;27321;50.816;6.054;2023-02-12T19:35:30;39.20;;;20.13;;
41627;SDS011;27321;50.816;6.054;2023-02-12T19:38:32;36.40;;;21.15;;
41627;SDS011;27321;50.816;6.054;2023-02-12T19:41:36;34.83;;;19.67;;
41627;SDS011;27321;50.816;6.054;2023-02-12T19:44:40;32.87;;;19.03;;
41627;SDS011;27321;50.816;6.054;2023-02-12T19:47:41;31.60;;;18.87;;
41627;SDS011;27321;50.816;6.054;2023-02-12T19:50:45;33.23;;;19.07;;
41627;SDS011;27321;50.816;6.054;2023-02-12T19:53:46;31.77;;;18.00;;
41627;SDS011;27321;50.816;6.054;2023-02-12T19:59:49;27.88;;;16.48;;
41627;SDS011;27321;50.816;6.054;2023-02-12T20:02:50;28.20;;;16.20;;
41627;SDS011;27321;50.816;6.054;2023-02-12T20:05:59;27.90;;;16.13;;
41627;SDS011;27321;50.816;6.054;2023-02-12T20:09:02;29.27;;;17.77;;
41627;SDS011;27321;50.816;6.054;2023-02-12T20:12:05;36.63;;;20.90;;
41627;SDS011;27321;50.816;6.054;2023-02-12T20:15:06;37.17;;;20.63;;
41627;SDS011;27321;50.816;6.054;2023-02-12T20:18:08;38.35;;;20.58;;
41627;SDS011;27321;50.816;6.054;2023-02-12T20:24:16;27.20;;;15.00;;
41627;SDS011;27321;50.816;6.054;2023-02-12T20:27:16;28.43;;;15.67;;
41627;SDS011;27321;50.816;6.054;2023-02-12T20:30:18;26.83;;;15.53;;
41627;SDS011;27321;50.816;6.054;2023-02-12T20:36:21;30.93;;;17.77;;
41627;SDS011;27321;50.816;6.054;2023-02-12T20:39:23;32.90;;;18.67;;
41627;SDS011;27321;50.816;6.054;2023-02-12T20:42:24;34.08;;;18.52;;
41627;SDS011;27321;50.816;6.054;2023-02-12T20:45:25;28.30;;;16.83;;
41627;SDS011;27321;50.816;6.054;2023-02-12T20:48:27;27.40;;;15.98;;
41627;SDS011;27321;50.816;6.054;2023-02-12T20:51:28;28.90;;;16.20;;
41627;SDS011;27321;50.816;6.054;2023-02-12T20:54:29;33.77;;;17.23;;
41627;SDS011;27321;50.816;6.054;2023-02-12T20:57:38;31.90;;;16.90;;
41627;SDS011;27321;50.816;6.054;2023-02-12T21:00:39;30.20;;;16.90;;